sim
Sign-in with your pilot id or email,
or register
Callsign
Passwort

Schedule Details

Flight Number: OEC262
Departure: Bilbao Airport (LEBB) at Time
Arrival: Munich Airport (EDDM) at Time

Weather Information
Getting current METAR information for LEBB 221330Z VRB03KT 9999 FEW055 26/16 Q1013 NOSIG
Getting current METAR information for EDDM 221350Z VRB03KT 9999 FEW040 24/15 Q1012 NOSIG

Schedule Frequency

Route Map